Terminal Aerodrome Forecast
Issued by NWS

Home | Current Version | Previous Version | Text Only | Print | Product List | Glossary On
Versions: 1 2 3 4 5 6 7 8 9 10 11 12 13 14 15
000
FTAK31 PANC 181125
TAFAEN
TAF
PAEN 181125Z 1812/1912 16006KT P6SM SCT025 SCT250
     FM181800 16006KT 5SM -RA BKN025 OVC040
     FM190000 VRB05KT 4SM -RA SCT008 OVC015
     FM190900 VRB02KT P6SM -SHRA BKN015 OVC025=

USA.gov is the U.S. government's official web portal to all federal, state and local government web resources and services.